Time;durP1;ratioP1;P1;durP2;ratioP2;P2;SDS_P1;SDS_P2;PMS_P1;PMS_P2;Temp;Humidity;BMP_temperature;BMP_pressure;BME280_temperature;BME280_humidity;BME280_pressure;Samples;Min_cycle;Max_cycle;Signal;HPM_P1;HPM_P2
2021/03/12 00:01:16;;;;;;;77.30;37.78;;;2.30;99.90;;;;;;5014649;28;20084;-79
2021/03/12 00:03:42;;;;;;;75.22;37.25;;;2.30;99.90;;;;;;5014649;28;20387;-79
2021/03/12 00:06:10;;;;;;;75.65;37.47;;;2.30;99.90;;;;;;5016031;28;20030;-79
2021/03/12 00:08:41;;;;;;;80.40;37.88;;;2.30;99.90;;;;;;5014711;28;20034;-78
2021/03/12 00:11:08;;;;;;;76.28;37.15;;;2.30;99.90;;;;;;5030617;28;20034;-79
2021/03/12 00:13:35;;;;;;;83.50;35.47;;;2.30;99.90;;;;;;5014531;28;20041;-78
2021/03/12 00:16:01;;;;;;;78.45;36.85;;;2.40;99.90;;;;;;5014521;28;20053;-78
2021/03/12 00:18:38;;;;;;;78.53;33.45;;;2.40;99.90;;;;;;5015822;28;20030;-78
2021/03/12 00:21:05;;;;;;;64.32;33.70;;;2.40;99.90;;;;;;5014131;28;20217;-78
2021/03/12 00:23:31;;;;;;;82.15;34.65;;;2.50;99.90;;;;;;5015428;28;20025;-78
2021/03/12 00:25:58;;;;;;;67.07;31.25;;;2.50;99.90;;;;;;5013882;28;20446;-78
2021/03/12 00:28:23;;;;;;;60.22;29.00;;;2.60;99.90;;;;;;5015550;28;20060;-79
2021/03/12 00:30:49;;;;;;;64.72;29.25;;;2.70;99.90;;;;;;5014963;28;20488;-79
2021/03/12 00:33:17;;;;;;;55.92;28.70;;;2.70;99.90;;;;;;5013591;28;20065;-79
2021/03/12 00:35:44;;;;;;;56.58;27.65;;;2.80;99.90;;;;;;5014198;28;20026;-78
2021/03/12 00:38:11;;;;;;;49.85;26.13;;;2.80;99.90;;;;;;5015467;28;20033;-77
2021/03/12 00:40:53;;;;;;;51.33;25.33;;;2.80;99.90;;;;;;5009525;28;20032;-77
2021/03/12 00:43:19;;;;;;;44.72;22.85;;;2.80;99.90;;;;;;5015331;28;20033;-78
2021/03/12 00:45:47;;;;;;;49.80;24.02;;;2.90;99.90;;;;;;5013737;28;20036;-78
2021/03/12 00:48:13;;;;;;;41.08;22.65;;;2.80;99.90;;;;;;5013706;28;20034;-78
2021/03/12 00:50:40;;;;;;;36.13;19.77;;;2.90;99.90;;;;;;5015120;28;20025;-78
2021/03/12 00:53:07;;;;;;;39.33;21.10;;;2.90;99.90;;;;;;5014977;28;20046;-78
2021/03/12 00:55:33;;;;;;;40.35;19.85;;;3.00;99.90;;;;;;5013515;28;20033;-78
2021/03/12 00:57:59;;;;;;;43.22;20.67;;;3.00;99.90;;;;;;5015059;28;20026;-78
2021/03/12 01:00:27;;;;;;;39.67;20.55;;;3.10;99.90;;;;;;5013673;28;20014;-78
2021/03/12 01:02:53;;;;;;;34.25;19.35;;;3.10;99.90;;;;;;5014816;28;20036;-78
2021/03/12 01:05:20;;;;;;;37.90;20.80;;;3.10;99.90;;;;;;5014871;28;20026;-78
2021/03/12 01:07:45;;;;;;;43.58;21.45;;;3.20;99.90;;;;;;5013522;28;20117;-79
2021/03/12 01:10:13;;;;;;;37.15;20.15;;;3.20;99.90;;;;;;5013456;28;20477;-77
2021/03/12 01:12:39;;;;;;;40.38;21.05;;;3.20;99.90;;;;;;5013477;28;20080;-77
2021/03/12 01:15:08;;;;;;;40.90;21.77;;;3.20;99.90;;;;;;5014000;28;20038;-78
2021/03/12 01:17:33;;;;;;;39.92;22.45;;;3.20;99.90;;;;;;5013447;28;20025;-78
2021/03/12 01:19:59;;;;;;;37.92;21.52;;;3.20;99.90;;;;;;5014569;28;20060;-78
2021/03/12 01:22:25;;;;;;;40.35;21.20;;;3.20;99.90;;;;;;5014410;28;20021;-79
2021/03/12 01:24:51;;;;;;;34.10;19.00;;;3.20;99.90;;;;;;5014454;28;20022;-78
2021/03/12 01:27:16;;;;;;;35.97;19.73;;;3.10;99.90;;;;;;5012883;28;20036;-79
2021/03/12 01:29:42;;;;;;;28.00;17.10;;;3.20;99.90;;;;;;5013111;28;20025;-78
2021/03/12 01:32:08;;;;;;;31.88;16.60;;;3.20;99.90;;;;;;5014116;28;20079;-79
2021/03/12 01:34:34;;;;;;;28.30;15.50;;;3.10;99.90;;;;;;5013090;28;20034;-78
2021/03/12 01:37:00;;;;;;;28.27;16.50;;;3.20;99.90;;;;;;5012520;28;20032;-78
2021/03/12 01:39:25;;;;;;;27.55;16.27;;;3.20;99.90;;;;;;5013976;28;20029;-79
2021/03/12 01:41:51;;;;;;;26.15;15.90;;;3.20;99.90;;;;;;5012938;28;20022;-80
2021/03/12 01:44:17;;;;;;;30.10;15.80;;;3.20;99.90;;;;;;5013653;28;20029;-79
2021/03/12 01:46:42;;;;;;;31.33;16.85;;;3.20;99.90;;;;;;5014211;28;20026;-79
2021/03/12 01:49:08;;;;;;;31.73;17.90;;;3.20;99.90;;;;;;5012856;28;20060;-79
2021/03/12 01:51:34;;;;;;;30.60;18.75;;;3.20;99.90;;;;;;5014102;28;20026;-79
2021/03/12 01:54:01;;;;;;;35.28;20.67;;;3.20;99.90;;;;;;5013883;28;20117;-78
2021/03/12 01:56:27;;;;;;;38.78;20.38;;;3.20;99.90;;;;;;5013816;28;20109;-78
2021/03/12 01:58:53;;;;;;;35.22;20.58;;;3.20;99.90;;;;;;5012606;28;20026;-78
2021/03/12 02:01:19;;;;;;;34.83;19.33;;;3.20;99.90;;;;;;5012254;28;20353;-78
2021/03/12 02:03:45;;;;;;;41.00;21.00;;;3.20;99.90;;;;;;5011839;28;20065;-77
2021/03/12 02:06:10;;;;;;;36.15;19.55;;;3.20;99.90;;;;;;5013863;28;20490;-79
2021/03/12 02:08:36;;;;;;;38.22;22.15;;;3.20;99.90;;;;;;5012550;28;20395;-79
2021/03/12 02:11:02;;;;;;;40.65;21.98;;;3.20;99.90;;;;;;5012584;28;20139;-79
2021/03/12 02:13:40;;;;;;;36.78;22.17;;;3.10;99.90;;;;;;5013625;28;20064;-79
2021/03/12 02:16:30;;;;;;;42.00;23.02;;;3.20;99.90;;;;;;5013717;28;20030;-78
2021/03/12 02:19:02;;;;;;;46.30;23.52;;;3.10;99.90;;;;;;5012172;28;20022;-78
2021/03/12 02:21:51;;;;;;;40.28;22.08;;;3.10;99.90;;;;;;5001839;28;20049;-78
2021/03/12 02:24:31;;;;;;;46.90;24.92;;;3.10;99.90;;;;;;4992705;28;20037;-78
2021/03/12 02:27:02;;;;;;;39.60;21.77;;;3.10;99.90;;;;;;4992608;28;20505;-77
2021/03/12 02:29:30;;;;;;;42.25;23.33;;;3.10;99.90;;;;;;4992626;28;20042;-74
2021/03/12 02:31:58;;;;;;;48.80;24.60;;;3.10;99.90;;;;;;4994209;28;20068;-77
2021/03/12 02:34:26;;;;;;;43.95;23.38;;;3.00;99.90;;;;;;4994658;28;20057;-78
2021/03/12 02:37:04;;;;;;;38.75;21.25;;;3.00;99.90;;;;;;5001177;28;20022;-78
2021/03/12 02:39:31;;;;;;;36.70;20.08;;;3.00;99.90;;;;;;5012040;28;20384;-79
2021/03/12 02:42:02;;;;;;;40.75;20.63;;;3.00;99.90;;;;;;5012961;28;20411;-80
2021/03/12 02:44:30;;;;;;;38.30;21.05;;;3.00;99.90;;;;;;5004026;28;20472;-80
2021/03/12 02:46:59;;;;;;;36.25;21.30;;;3.00;99.90;;;;;;5010233;28;20032;-80
2021/03/12 02:49:26;;;;;;;40.00;22.60;;;2.90;99.90;;;;;;5008824;28;20030;-80
2021/03/12 02:51:53;;;;;;;31.33;18.27;;;2.90;99.90;;;;;;5045024;28;20102;-80
2021/03/12 02:54:20;;;;;;;40.97;19.17;;;2.90;99.90;;;;;;5013058;28;20125;-80
2021/03/12 02:56:46;;;;;;;38.22;21.00;;;2.90;99.90;;;;;;5044938;28;20383;-79
2021/03/12 02:59:13;;;;;;;40.33;20.17;;;2.90;99.90;;;;;;5012996;28;20022;-79
2021/03/12 03:01:39;;;;;;;33.65;19.50;;;2.90;99.90;;;;;;5013092;28;20068;-79
2021/03/12 03:04:05;;;;;;;39.42;19.83;;;2.90;99.90;;;;;;5012622;28;20399;-79
2021/03/12 03:06:31;;;;;;;37.15;19.23;;;2.90;99.90;;;;;;5012759;28;20018;-78
2021/03/12 03:08:57;;;;;;;35.80;17.67;;;2.90;99.90;;;;;;5011613;28;20125;-78
2021/03/12 03:11:24;;;;;;;35.53;20.42;;;2.90;99.90;;;;;;5011780;28;20053;-79
2021/03/12 03:13:52;;;;;;;34.13;18.80;;;2.90;99.90;;;;;;5011303;28;20441;-78
2021/03/12 03:16:28;;;;;;;32.25;18.88;;;3.00;99.90;;;;;;5011696;28;20033;-79
2021/03/12 03:18:56;;;;;;;33.53;18.98;;;3.00;99.90;;;;;;5012896;28;20379;-79
2021/03/12 03:21:22;;;;;;;37.83;19.38;;;3.10;99.90;;;;;;5012908;28;20514;-78
2021/03/12 03:23:48;;;;;;;35.53;18.90;;;3.10;99.90;;;;;;5012415;28;20014;-78
2021/03/12 03:26:14;;;;;;;35.75;20.40;;;3.10;99.90;;;;;;5012722;28;20026;-79
2021/03/12 03:28:40;;;;;;;33.42;20.63;;;3.20;99.90;;;;;;5011549;28;20033;-78
2021/03/12 03:31:06;;;;;;;40.72;21.10;;;3.20;99.90;;;;;;5012797;28;20030;-78
2021/03/12 03:33:32;;;;;;;36.67;20.00;;;3.20;99.90;;;;;;5011418;28;20037;-78
2021/03/12 03:35:59;;;;;;;34.03;20.05;;;3.20;99.90;;;;;;5012687;28;20018;-78
2021/03/12 03:38:25;;;;;;;37.42;21.42;;;3.30;99.90;;;;;;5011506;28;20518;-78
2021/03/12 03:40:51;;;;;;;35.40;18.55;;;3.30;99.90;;;;;;5011351;28;20026;-78
2021/03/12 03:43:24;;;;;;;35.30;19.58;;;3.30;99.90;;;;;;5011498;28;20045;-79
2021/03/12 03:45:50;;;;;;;;;;;3.30;99.90;;;;;;5011901;28;20061;-78
2021/03/12 03:48:17;;;;;;;31.02;17.83;;;3.30;99.90;;;;;;5012714;28;19906;-78
2021/03/12 03:50:44;;;;;;;33.97;18.52;;;3.30;99.90;;;;;;5011348;28;20030;-78
2021/03/12 03:53:10;;;;;;;35.53;21.77;;;3.30;99.90;;;;;;5012516;28;20069;-78
2021/03/12 03:55:37;;;;;;;40.45;20.23;;;3.30;99.90;;;;;;5012578;28;20117;-78
2021/03/12 03:58:03;;;;;;;38.55;22.10;;;3.30;99.90;;;;;;5011381;28;20014;-78
2021/03/12 04:00:29;;;;;;;38.63;21.55;;;3.40;99.90;;;;;;5011342;28;20387;-78
2021/03/12 04:02:55;;;;;;;38.78;20.35;;;3.30;99.90;;;;;;5014676;28;20034;-77
2021/03/12 04:05:22;;;;;;;43.92;23.65;;;3.40;99.90;;;;;;5016157;28;20022;-77
2021/03/12 04:07:48;;;;;;;43.45;23.17;;;3.40;99.90;;;;;;5016057;28;20097;-78
2021/03/12 04:10:14;;;;;;;42.42;22.30;;;3.50;99.90;;;;;;5015964;28;20045;-79
2021/03/12 04:12:43;;;;;;;46.33;23.52;;;3.40;99.90;;;;;;5015948;28;20029;-79
2021/03/12 04:15:09;;;;;;;42.28;22.30;;;3.50;99.90;;;;;;5014408;28;20029;-78
2021/03/12 04:17:36;;;;;;;45.83;25.73;;;3.50;99.90;;;;;;5014489;28;20482;-78
2021/03/12 04:20:04;;;;;;;44.35;23.52;;;3.50;99.90;;;;;;5015735;28;20032;-78
2021/03/12 04:22:31;;;;;;;44.20;24.20;;;3.50;99.90;;;;;;5014499;28;20018;-78
2021/03/12 04:24:57;;;;;;;45.58;24.55;;;3.60;99.90;;;;;;5014031;28;20064;-78
2021/03/12 04:27:23;;;;;;;49.30;25.05;;;3.60;99.90;;;;;;5014237;28;20057;-78
2021/03/12 04:29:50;;;;;;;46.65;25.85;;;3.60;99.90;;;;;;5014249;28;20487;-78
2021/03/12 04:32:16;;;;;;;50.13;25.83;;;3.60;99.90;;;;;;5015637;28;20018;-78
2021/03/12 04:34:42;;;;;;;48.55;24.45;;;3.60;99.90;;;;;;5014169;28;20168;-78
2021/03/12 04:37:09;;;;;;;53.30;28.45;;;3.60;99.90;;;;;;5013797;28;20026;-79
2021/03/12 04:39:35;;;;;;;55.67;28.02;;;3.70;99.90;;;;;;5014175;28;20494;-79
2021/03/12 04:42:02;;;;;;;53.95;28.08;;;3.70;99.90;;;;;;5014144;28;20072;-78
2021/03/12 04:44:29;;;;;;;51.72;27.67;;;3.70;99.90;;;;;;5013894;28;20018;-78
2021/03/12 04:46:55;;;;;;;52.42;25.45;;;3.70;99.90;;;;;;5015260;28;20029;-79
2021/03/12 04:49:22;;;;;;;49.72;25.42;;;3.70;99.90;;;;;;5013981;28;20026;-79
2021/03/12 04:51:48;;;;;;;51.00;26.17;;;3.80;99.90;;;;;;5014624;28;20022;-78
2021/03/12 04:54:16;;;;;;;46.17;24.70;;;3.80;99.90;;;;;;5013535;28;20034;-79
2021/03/12 04:56:42;;;;;;;65.13;29.48;;;3.80;99.90;;;;;;5013616;28;20026;-79
2021/03/12 04:59:09;;;;;;;48.28;25.20;;;3.80;99.90;;;;;;5013491;28;20029;-78
2021/03/12 05:01:36;;;;;;;49.55;23.45;;;3.70;99.90;;;;;;5013431;28;20076;-78
2021/03/12 05:04:03;;;;;;;42.88;23.15;;;3.70;99.90;;;;;;5012843;28;20402;-78
2021/03/12 05:06:31;;;;;;;41.05;23.77;;;3.70;99.90;;;;;;5013635;28;20423;-78
2021/03/12 05:08:57;;;;;;;43.50;23.50;;;3.60;99.90;;;;;;5013569;28;20091;-78
2021/03/12 05:11:23;;;;;;;41.90;23.23;;;3.60;99.90;;;;;;5012825;28;20034;-79
2021/03/12 05:13:50;;;;;;;42.47;21.35;;;3.50;99.90;;;;;;5010642;28;20188;-79
2021/03/12 05:16:16;;;;;;;43.63;23.73;;;3.50;99.90;;;;;;5011157;28;20053;-79
2021/03/12 05:18:41;;;;;;;45.42;25.05;;;3.50;99.90;;;;;;5011679;28;20010;-79
2021/03/12 05:21:07;;;;;;;43.67;24.02;;;3.40;99.90;;;;;;5012544;28;20479;-78
2021/03/12 05:23:33;;;;;;;43.70;24.73;;;3.40;99.90;;;;;;5014553;28;20492;-78
2021/03/12 05:25:59;;;;;;;43.65;21.83;;;3.40;99.90;;;;;;5013334;28;20026;-79
2021/03/12 05:28:24;;;;;;;43.33;23.42;;;3.40;99.90;;;;;;5014482;28;20468;-77
2021/03/12 05:30:50;;;;;;;41.88;23.55;;;3.30;99.90;;;;;;5012913;28;20025;-80
2021/03/12 05:33:15;;;;;;;41.08;23.35;;;3.30;99.90;;;;;;5012635;28;20513;-79
2021/03/12 05:35:41;;;;;;;43.35;23.25;;;3.40;99.90;;;;;;5009067;28;20463;-79
2021/03/12 05:38:07;;;;;;;51.10;24.15;;;3.40;99.90;;;;;;5012198;28;20025;-80
2021/03/12 05:40:33;;;;;;;43.45;24.73;;;3.40;99.90;;;;;;5011639;28;20025;-79
2021/03/12 05:43:01;;;;;;;41.78;23.48;;;3.40;99.90;;;;;;5012169;28;20072;-80
2021/03/12 05:45:27;;;;;;;48.47;24.25;;;3.40;99.90;;;;;;5012755;28;20479;-79
2021/03/12 05:47:55;;;;;;;51.45;24.45;;;3.40;99.90;;;;;;5013458;28;20072;-79
2021/03/12 05:50:21;;;;;;;53.65;28.00;;;3.40;99.90;;;;;;5006441;28;20023;-78
2021/03/12 05:52:48;;;;;;;56.92;28.75;;;3.40;99.90;;;;;;5002147;28;20057;-78
2021/03/12 05:55:18;;;;;;;61.25;30.88;;;3.50;99.90;;;;;;4997951;28;20038;-78
2021/03/12 05:57:45;;;;;;;61.53;31.25;;;3.50;99.90;;;;;;4992706;28;20025;-78
2021/03/12 06:00:12;;;;;;;55.42;27.90;;;3.50;99.90;;;;;;4992773;28;20045;-79
2021/03/12 06:02:38;;;;;;;64.32;29.48;;;3.60;99.90;;;;;;5011312;28;20394;-78
2021/03/12 06:05:09;;;;;;;59.90;32.30;;;3.60;99.90;;;;;;5011667;28;20088;-78
2021/03/12 06:07:35;;;;;;;59.58;28.35;;;3.60;99.90;;;;;;5012207;28;20029;-79
2021/03/12 06:10:02;;;;;;;59.35;27.95;;;3.60;99.90;;;;;;5013421;28;20044;-80
2021/03/12 06:12:28;;;;;;;59.33;29.98;;;3.70;99.90;;;;;;5011795;28;20018;-79
2021/03/12 06:15:03;;;;;;;59.65;27.35;;;3.70;99.90;;;;;;5011774;28;20068;-78
2021/03/12 06:17:42;;;;;;;55.60;28.25;;;3.70;99.90;;;;;;5010882;28;20018;-79
2021/03/12 06:20:16;;;;;;;59.35;28.98;;;3.70;99.90;;;;;;5010445;28;20108;-80
2021/03/12 06:22:51;;;;;;;53.95;30.35;;;3.70;99.90;;;;;;5005686;28;20456;-79
2021/03/12 06:25:22;;;;;;;67.78;31.92;;;3.80;99.90;;;;;;4993398;28;20045;-82
2021/03/12 06:27:49;;;;;;;65.25;33.60;;;3.80;99.90;;;;;;4992627;28;20365;-78
2021/03/12 06:30:20;;;;;;;70.60;34.10;;;3.80;99.90;;;;;;4992549;28;20026;-78
2021/03/12 06:32:53;;;;;;;68.55;33.28;;;3.90;99.90;;;;;;4991593;28;20026;-79
2021/03/12 06:35:23;;;;;;;69.80;35.78;;;4.00;99.90;;;;;;4992057;28;20080;-78
2021/03/12 06:37:50;;;;;;;68.03;35.80;;;4.00;99.90;;;;;;4993674;28;20054;-78
2021/03/12 06:40:27;;;;;;;66.70;34.75;;;4.00;99.90;;;;;;5001841;28;20030;-78
2021/03/12 06:43:25;;;;;;;71.65;35.90;;;4.10;99.90;;;;;;4995179;28;20052;-77
2021/03/12 06:45:50;;;;;;;71.13;35.67;;;4.10;99.90;;;;;;5001390;28;20038;-78
2021/03/12 06:48:19;;;;;;;69.63;35.03;;;4.10;99.90;;;;;;5010478;28;20024;-78
2021/03/12 06:51:07;;;;;;;61.47;32.15;;;4.20;99.90;;;;;;5010601;28;20058;-78
2021/03/12 06:53:34;;;;;;;61.33;30.00;;;4.20;99.90;;;;;;5008832;28;20037;-78
2021/03/12 06:56:03;;;;;;;60.85;30.20;;;4.30;99.90;;;;;;5010497;28;20379;-77
2021/03/12 06:58:29;;;;;;;61.25;31.08;;;4.30;99.90;;;;;;5010045;28;20380;-77
2021/03/12 07:00:55;;;;;;;52.63;24.70;;;4.30;99.90;;;;;;5011076;28;20479;-79
2021/03/12 07:03:26;;;;;;;58.90;28.35;;;4.30;99.90;;;;;;5010762;28;20034;-77
2021/03/12 07:05:56;;;;;;;45.78;24.13;;;4.30;99.90;;;;;;5010586;28;20030;-78
2021/03/12 07:08:29;;;;;;;48.72;23.42;;;4.30;99.90;;;;;;5010813;28;20015;-77
2021/03/12 07:10:55;;;;;;;50.45;24.10;;;4.30;99.90;;;;;;5010896;28;20361;-77
2021/03/12 07:13:21;;;;;;;46.20;24.30;;;4.30;99.90;;;;;;5010536;28;20033;-77
2021/03/12 07:15:50;;;;;;;47.80;24.00;;;4.30;99.90;;;;;;5010988;28;20018;-78
2021/03/12 07:18:16;;;;;;;44.70;22.95;;;4.20;99.90;;;;;;5010308;28;20026;-78
2021/03/12 07:20:42;;;;;;;46.42;23.20;;;4.20;99.90;;;;;;5010556;28;20029;-77
2021/03/12 07:23:08;;;;;;;59.55;28.58;;;4.20;99.90;;;;;;5010683;28;20495;-79
2021/03/12 07:25:34;;;;;;;70.68;31.25;;;4.20;99.90;;;;;;5009989;28;20018;-77
2021/03/12 07:28:05;;;;;;;74.85;32.03;;;4.20;99.90;;;;;;5009618;28;20030;-78
2021/03/12 07:30:36;;;;;;;64.95;29.27;;;4.20;99.90;;;;;;5011047;28;20060;-78
2021/03/12 07:33:01;;;;;;;67.43;30.88;;;4.20;99.90;;;;;;5010149;28;20161;-77
2021/03/12 07:35:28;;;;;;;60.25;31.08;;;4.20;99.90;;;;;;5008788;28;20454;-78
2021/03/12 07:37:58;;;;;;;60.47;30.05;;;4.30;99.90;;;;;;5013680;28;20056;-78
2021/03/12 07:40:25;;;;;;;62.42;31.17;;;4.30;99.90;;;;;;5015741;28;20195;-78
2021/03/12 07:42:51;;;;;;;55.58;27.83;;;4.40;99.90;;;;;;5013824;28;20501;-78
2021/03/12 07:45:21;;;;;;;68.03;30.27;;;4.40;99.90;;;;;;5014410;28;20037;-77
2021/03/12 07:47:47;;;;;;;61.90;31.35;;;4.50;99.90;;;;;;5014275;28;20129;-77
2021/03/12 07:50:42;;;;;;;56.42;29.73;;;4.50;99.90;;;;;;5014617;28;20108;-78
2021/03/12 07:53:08;;;;;;;52.72;28.17;;;4.60;99.90;;;;;;5007206;28;20133;-77
2021/03/12 07:55:37;;;;;;;57.20;29.65;;;4.60;99.90;;;;;;5014345;28;20026;-77
2021/03/12 07:58:08;;;;;;;58.67;31.70;;;4.70;99.90;;;;;;5013718;28;20029;-78
2021/03/12 08:00:52;;;;;;;57.58;27.40;;;4.70;99.90;;;;;;5014022;28;20028;-77
2021/03/12 08:03:39;;;;;;;49.10;24.27;;;4.80;99.90;;;;;;5013675;28;20026;-77
2021/03/12 08:06:17;;;;;;;56.67;25.70;;;5.00;99.90;;;;;;5013953;28;20032;-78
2021/03/12 08:08:45;;;;;;;52.47;26.27;;;5.20;99.90;;;;;;5013792;28;20124;-78
2021/03/12 08:11:36;;;;;;;52.25;25.58;;;5.40;99.90;;;;;;5013690;28;20096;-78
2021/03/12 08:14:19;;;;;;;56.17;25.25;;;5.50;99.90;;;;;;5011259;28;20022;-77
2021/03/12 08:16:57;;;;;;;;;;;5.70;99.90;;;;;;5014367;28;20100;-78
2021/03/12 08:19:33;;;;;;;55.25;24.25;;;5.90;99.90;;;;;;5009859;28;19909;-77
2021/03/12 08:22:00;;;;;;;54.58;23.30;;;5.90;99.90;;;;;;5013664;28;20018;-77
2021/03/12 08:24:49;;;;;;;52.75;25.80;;;6.00;99.90;;;;;;5013755;28;20479;-78
2021/03/12 08:27:42;;;;;;;49.08;21.95;;;6.10;99.90;;;;;;5013569;28;20037;-77
2021/03/12 08:30:30;;;;;;;46.42;23.45;;;6.10;99.90;;;;;;5011393;28;20041;-77
2021/03/12 08:32:57;;;;;;;43.65;19.85;;;6.30;99.90;;;;;;5003478;28;20026;-77
2021/03/12 08:35:39;;;;;;;47.35;22.05;;;6.40;99.90;;;;;;5011049;28;20030;-77
2021/03/12 08:38:11;;;;;;;38.78;19.27;;;6.50;99.90;;;;;;5010991;28;20052;-78
2021/03/12 08:40:39;;;;;;;33.95;18.70;;;6.60;99.90;;;;;;5014770;28;20053;-78
2021/03/12 08:43:15;;;;;;;32.63;16.27;;;6.70;99.90;;;;;;5014381;28;20022;-77
2021/03/12 08:45:46;;;;;;;34.50;16.67;;;6.70;99.90;;;;;;5014568;28;20040;-77
2021/03/12 08:48:29;;;;;;;26.15;16.27;;;6.70;99.90;;;;;;5014129;28;20195;-77
2021/03/12 08:51:01;;;;;;;28.92;15.65;;;6.70;99.90;;;;;;5013255;28;20471;-78
2021/03/12 08:53:32;;;;;;;38.67;18.15;;;6.60;99.90;;;;;;5014373;28;20033;-78
2021/03/12 08:56:00;;;;;;;34.63;16.42;;;6.60;99.90;;;;;;5014201;28;20072;-78
2021/03/12 08:58:28;;;;;;;29.80;15.27;;;6.60;99.90;;;;;;5013777;28;20022;-77
2021/03/12 09:00:55;;;;;;;32.33;20.30;;;6.60;99.90;;;;;;5012871;28;20109;-77
2021/03/12 09:03:24;;;;;;;31.17;17.10;;;6.60;99.90;;;;;;5012581;28;20062;-77
2021/03/12 09:05:52;;;;;;;37.97;17.33;;;6.50;99.90;;;;;;5012465;28;20488;-78
2021/03/12 09:08:23;;;;;;;43.38;18.23;;;6.40;99.90;;;;;;5012198;28;20444;-78
2021/03/12 09:10:49;;;;;;;33.40;17.88;;;6.40;99.90;;;;;;5013637;28;20022;-78
2021/03/12 09:13:20;;;;;;;34.60;18.75;;;6.30;99.90;;;;;;5012605;28;20030;-77
2021/03/12 09:15:47;;;;;;;31.38;14.43;;;6.20;99.90;;;;;;5012267;28;20096;-78
2021/03/12 09:18:18;;;;;;;23.48;13.38;;;6.20;99.90;;;;;;5013397;28;20028;-78
2021/03/12 09:20:49;;;;;;;24.35;12.63;;;6.00;99.90;;;;;;5012398;28;20479;-77
2021/03/12 09:23:14;;;;;;;30.13;16.67;;;5.80;99.90;;;;;;5013559;28;20070;-77
2021/03/12 09:25:40;;;;;;;46.42;21.35;;;5.60;99.90;;;;;;5024350;28;20026;-76
2021/03/12 09:28:12;;;;;;;35.35;19.58;;;5.40;99.90;;;;;;5011142;28;20034;-78
2021/03/12 09:30:46;;;;;;;41.78;21.08;;;5.20;99.90;;;;;;5012181;28;20044;-77
2021/03/12 09:33:29;;;;;;;28.60;15.60;;;5.10;99.90;;;;;;5012752;28;20049;-77
2021/03/12 09:35:55;;;;;;;56.70;25.83;;;5.00;99.90;;;;;;5011914;28;20030;-78
2021/03/12 09:38:36;;;;;;;50.65;24.88;;;5.10;99.90;;;;;;5012953;28;20029;-77
2021/03/12 09:41:23;;;;;;;29.75;17.10;;;5.20;99.90;;;;;;5011901;28;20109;-78
2021/03/12 09:44:00;;;;;;;22.58;12.70;;;5.30;99.90;;;;;;5011570;28;20026;-78
2021/03/12 09:47:05;;;;;;;21.35;12.95;;;5.30;99.90;;;;;;5007674;28;20040;-78
2021/03/12 09:49:42;;;;;;;28.85;14.77;;;5.30;99.90;;;;;;4955594;28;20122;-78
2021/03/12 09:52:13;;;;;;;25.27;14.18;;;5.30;99.90;;;;;;5008509;28;20048;-78
2021/03/12 09:54:40;;;;;;;37.67;19.40;;;5.20;99.90;;;;;;5011572;28;20029;-78
2021/03/12 09:57:08;;;;;;;75.45;42.17;;;5.30;99.90;;;;;;5012817;28;20018;-78
2021/03/12 09:59:37;;;;;;;34.17;16.67;;;5.30;99.90;;;;;;5010660;28;20120;-77
2021/03/12 10:02:09;;;;;;;44.20;22.08;;;5.30;99.90;;;;;;5011441;28;20466;-78
2021/03/12 10:04:40;;;;;;;41.30;18.55;;;5.30;99.90;;;;;;5011337;28;20046;-78
2021/03/12 10:07:14;;;;;;;33.17;17.40;;;5.20;99.90;;;;;;5011310;28;20476;-78
2021/03/12 10:09:45;;;;;;;41.47;19.50;;;5.20;99.90;;;;;;5010973;28;20045;-77
2021/03/12 10:12:24;;;;;;;37.22;18.17;;;5.30;99.90;;;;;;5012723;28;20088;-77
2021/03/12 10:14:52;;;;;;;30.88;17.50;;;5.40;99.90;;;;;;5012464;28;20109;-77
2021/03/12 10:17:20;;;;;;;31.52;16.63;;;5.50;99.90;;;;;;5011310;28;20026;-78
2021/03/12 10:19:55;;;;;;;29.88;16.23;;;5.40;99.90;;;;;;5010980;28;20026;-78
2021/03/12 10:22:38;;;;;;;28.70;15.35;;;5.20;99.90;;;;;;5011256;28;20068;-78
2021/03/12 10:25:13;;;;;;;31.08;15.90;;;4.80;99.90;;;;;;5007832;28;20112;-78
2021/03/12 10:28:00;;;;;;;13.63;8.18;;;4.80;99.90;;;;;;5011384;28;20394;-78
2021/03/12 10:30:41;;;;;;;22.15;11.80;;;4.70;99.90;;;;;;5011427;28;20062;-78
2021/03/12 10:33:08;;;;;;;13.48;8.68;;;4.80;99.90;;;;;;5008221;28;20057;-78
2021/03/12 10:35:42;;;;;;;21.20;10.57;;;4.80;99.90;;;;;;5011045;28;20510;-78
2021/03/12 10:38:08;;;;;;;14.48;7.88;;;4.80;99.90;;;;;;5012542;28;20050;-78
2021/03/12 10:40:39;;;;;;;29.77;14.23;;;4.90;99.90;;;;;;5011514;28;20092;-77
2021/03/12 10:43:11;;;;;;;11.63;5.85;;;5.10;99.90;;;;;;5012206;28;20464;-77
2021/03/12 10:45:52;;;;;;;26.98;10.18;;;5.10;99.90;;;;;;5012708;28;20530;-77
2021/03/12 10:48:21;;;;;;;24.95;10.77;;;5.20;99.90;;;;;;5042152;28;20053;-78
2021/03/12 10:50:55;;;;;;;11.65;6.85;;;5.40;99.90;;;;;;5010290;28;20033;-78
2021/03/12 10:53:21;;;;;;;13.77;7.28;;;5.60;99.90;;;;;;5010687;28;20105;-77
2021/03/12 10:55:49;;;;;;;10.85;5.35;;;5.80;99.90;;;;;;5012365;28;20097;-77
2021/03/12 10:58:36;;;;;;;11.20;5.35;;;5.90;99.90;;;;;;5012357;28;20030;-78
2021/03/12 11:01:11;;;;;;;5.90;4.25;;;5.80;99.90;;;;;;5010977;28;20443;-78
2021/03/12 11:03:38;;;;;;;12.07;7.07;;;5.80;99.90;;;;;;5011016;28;20056;-77
2021/03/12 11:06:04;;;;;;;8.00;5.35;;;5.80;99.90;;;;;;5010973;28;20034;-78
2021/03/12 11:08:31;;;;;;;7.93;4.88;;;5.80;99.90;;;;;;5012215;28;20495;-77
2021/03/12 11:10:58;;;;;;;6.68;4.88;;;5.80;99.90;;;;;;5013774;28;20471;-78
2021/03/12 11:13:24;;;;;;;9.75;5.38;;;5.90;99.90;;;;;;5014740;28;20112;-77
2021/03/12 11:15:50;;;;;;;11.00;6.43;;;6.00;99.90;;;;;;5016080;28;20102;-77
2021/03/12 11:18:16;;;;;;;13.20;8.35;;;5.90;99.90;;;;;;5013132;28;20018;-78
2021/03/12 11:20:42;;;;;;;11.43;6.13;;;5.70;99.90;;;;;;5008894;28;20487;-78
2021/03/12 11:23:08;;;;;;;9.38;6.45;;;5.60;99.90;;;;;;5014837;28;20057;-77
2021/03/12 11:25:34;;;;;;;16.60;6.85;;;5.50;99.90;;;;;;5014902;28;20018;-78
2021/03/12 11:28:01;;;;;;;8.20;6.07;;;5.40;99.90;;;;;;5015752;28;20030;-79
2021/03/12 11:30:27;;;;;;;11.00;6.38;;;5.10;99.90;;;;;;5015500;28;20140;-79
2021/03/12 11:32:53;;;;;;;9.63;6.70;;;5.00;99.90;;;;;;5014860;28;20425;-79
2021/03/12 11:35:19;;;;;;;6.32;5.18;;;4.90;99.90;;;;;;5014791;28;20014;-78
2021/03/12 11:37:45;;;;;;;11.38;6.90;;;4.70;99.90;;;;;;5013476;28;20391;-77
2021/03/12 11:40:12;;;;;;;36.58;22.27;;;4.70;99.90;;;;;;5014470;28;20026;-79
2021/03/12 11:42:39;;;;;;;9.05;7.28;;;4.80;99.90;;;;;;5015894;28;20045;-79
2021/03/12 11:45:16;;;;;;;19.13;10.75;;;5.00;99.90;;;;;;5014158;28;20503;-79
2021/03/12 11:47:42;;;;;;;34.50;22.15;;;5.10;99.90;;;;;;5015685;28;20044;-79
2021/03/12 11:50:11;;;;;;;72.30;63.30;;;5.20;99.90;;;;;;5014294;28;20018;-78
2021/03/12 11:52:37;;;;;;;39.75;20.58;;;5.40;99.90;;;;;;5015692;28;20041;-78
2021/03/12 11:55:06;;;;;;;35.88;17.13;;;5.50;99.90;;;;;;5014184;28;20033;-79
2021/03/12 11:57:32;;;;;;;20.58;12.15;;;5.80;99.90;;;;;;5010250;28;20076;-77
2021/03/12 11:59:58;;;;;;;13.73;8.95;;;6.10;99.90;;;;;;5014734;28;20057;-78
2021/03/12 12:02:24;;;;;;;19.80;9.02;;;6.20;99.90;;;;;;5013648;28;20050;-78
2021/03/12 12:04:50;;;;;;;48.00;20.02;;;6.40;99.90;;;;;;5015414;28;20045;-77
2021/03/12 12:07:16;;;;;;;27.73;12.43;;;6.70;99.90;;;;;;5014049;28;20014;-78
2021/03/12 12:09:42;;;;;;;50.83;23.88;;;6.80;99.90;;;;;;4997534;28;20387;-78
2021/03/12 12:12:09;;;;;;;46.28;21.38;;;6.80;99.90;;;;;;5015187;28;20021;-78
2021/03/12 12:14:36;;;;;;;51.25;27.20;;;6.70;87.70;;;;;;5013970;28;20049;-78
2021/03/12 12:17:02;;;;;;;50.97;23.17;;;6.80;94.70;;;;;;5015181;28;20030;-77
2021/03/12 12:19:28;;;;;;;47.28;19.55;;;6.90;99.90;;;;;;5009911;28;20034;-78
2021/03/12 12:21:54;;;;;;;44.92;17.05;;;6.90;92.20;;;;;;4995203;28;20372;-78
2021/03/12 12:24:19;;;;;;;28.58;14.95;;;6.90;88.40;;;;;;5013359;28;20040;-78
2021/03/12 12:26:45;;;;;;;54.00;23.05;;;6.90;83.00;;;;;;5014960;28;20057;-77
2021/03/12 12:29:10;;;;;;;75.85;29.35;;;6.90;87.50;;;;;;5012813;28;20057;-78
2021/03/12 12:31:37;;;;;;;24.73;11.88;;;6.80;87.50;;;;;;5013156;28;20116;-77
2021/03/12 12:34:04;;;;;;;58.28;24.70;;;6.70;83.50;;;;;;5014795;28;20030;-78
2021/03/12 12:36:30;;;;;;;38.42;14.70;;;6.60;84.80;;;;;;5013357;28;20542;-78
2021/03/12 12:38:57;;;;;;;43.25;18.63;;;6.40;86.20;;;;;;5013351;28;20056;-77
2021/03/12 12:41:23;;;;;;;39.97;15.82;;;6.20;85.50;;;;;;5014469;28;20026;-78
2021/03/12 12:43:50;;;;;;;8.27;4.60;;;6.00;91.80;;;;;;5012724;28;20036;-78
2021/03/12 12:46:16;;;;;;;3.42;2.60;;;5.60;95.20;;;;;;5013918;28;20049;-78
2021/03/12 12:48:42;;;;;;;4.03;2.80;;;4.90;98.00;;;;;;5012376;28;20037;-78